Time;durP1;ratioP1;P1;durP2;ratioP2;P2;SDS_P1;SDS_P2;PMS_P1;PMS_P2;Temp;Humidity;BMP_temperature;BMP_pressure;BME280_temperature;BME280_humidity;BME280_pressure;Samples;Min_cycle;Max_cycle;Signal;HPM_P1;HPM_P2
2022/07/02 00:01:56;;;;;;;;;5.25;4.25;;;;;17.28;100.00;101774.94;5025205;28;45059;-90
2022/07/02 00:04:30;;;;;;;;;6.25;3.25;;;;;17.23;100.00;101774.44;5061814;27;45043;-91
2022/07/02 00:07:01;;;;;;;;;4.00;4.00;;;;;17.11;100.00;101762.81;5048230;27;44735;-91
2022/07/02 00:09:33;;;;;;;;;4.50;4.50;;;;;17.12;100.00;101783.34;5049494;27;44762;-91
2022/07/02 00:12:01;;;;;;;;;4.20;3.40;;;;;17.01;100.00;101775.25;5061828;27;45065;-91
2022/07/02 00:14:39;;;;;;;;;5.40;4.00;;;;;16.91;100.00;101770.59;5062418;28;44731;-92
2022/07/02 00:17:11;;;;;;;;;4.20;4.20;;;;;16.84;100.00;101768.53;5044283;28;44736;-90
2022/07/02 00:19:41;;;;;;;;;4.40;4.00;;;;;16.79;100.00;101768.03;5037207;28;44908;-92
2022/07/02 00:22:11;;;;;;;;;3.00;3.00;;;;;16.67;100.00;101753.66;5053308;28;46041;-88
2022/07/02 00:24:40;;;;;;;;;3.40;3.40;;;;;16.65;100.00;101777.09;5050557;28;44920;-89
2022/07/02 00:27:09;;;;;;;;;4.20;4.20;;;;;16.59;100.00;101770.38;5050018;28;44738;-89
2022/07/02 00:29:46;;;;;;;;;4.00;4.00;;;;;16.61;100.00;101779.13;5029495;28;44950;-91
2022/07/02 00:32:12;;;;;;;;;8.20;5.00;;;;;16.59;100.00;101774.88;5028060;28;45111;-89
2022/07/02 00:34:47;;;;;;;;;4.75;4.25;;;;;16.57;100.00;101777.66;5028731;28;44767;-90
2022/07/02 00:37:13;;;;;;;;;6.40;3.80;;;;;16.60;100.00;101781.94;5024784;28;45401;-89
2022/07/02 00:39:47;;;;;;;;;4.75;4.75;;;;;16.62;100.00;101769.25;5043448;28;44823;-93
2022/07/02 00:42:14;;;;;;;;;3.60;3.60;;;;;16.59;100.00;101767.69;5013429;28;45364;-89
2022/07/02 00:44:41;;;;;;;;;4.80;4.00;;;;;16.61;100.00;101760.34;5026532;28;44699;-90
2022/07/02 00:47:22;;;;;;;;;5.80;5.80;;;;;16.66;100.00;101776.09;5047190;28;44802;-91
2022/07/02 00:50:06;;;;;;;;;4.75;3.00;;;;;16.64;100.00;101768.19;5045805;28;44817;-91
2022/07/02 00:52:31;;;;;;;;;6.40;5.20;;;;;16.57;100.00;101776.81;5048547;28;45369;-89
2022/07/02 00:55:19;;;;;;;;;3.25;3.25;;;;;16.41;100.00;101764.56;5051296;28;44779;-92
2022/07/02 00:57:52;;;;;;;;;4.00;4.00;;;;;16.38;100.00;101767.44;5016467;28;44757;-92
2022/07/02 01:00:35;;;;;;;;;4.00;4.00;;;;;16.27;100.00;101755.81;5052181;28;44770;-92
2022/07/02 01:03:05;;;;;;;;;3.20;3.20;;;;;16.19;100.00;101749.19;5034774;28;45055;-91
2022/07/02 01:05:30;;;;;;;;;6.60;6.60;;;;;16.18;100.00;101766.25;5035971;28;44762;-90
2022/07/02 01:10:49;;;;;;;;;4.75;4.75;;;;;16.08;100.00;101759.00;5056721;28;44624;-90
2022/07/02 01:13:16;;;;;;;;;9.00;6.25;;;;;16.01;100.00;101755.09;5054561;28;45035;-89
2022/07/02 01:15:42;;;;;;;;;7.60;3.40;;;;;15.96;100.00;101746.53;5044796;28;45280;-88
2022/07/02 01:18:07;;;;;;;;;2.75;2.75;;;;;15.90;100.00;101753.16;5045022;28;44618;-89
2022/07/02 01:20:34;;;;;;;;;7.50;5.25;;;;;15.86;100.00;101765.09;5044811;28;44786;-89
2022/07/02 01:23:00;;;;;;;;;6.25;6.25;;;;;15.77;100.00;101763.09;5044317;28;44939;-89
2022/07/02 01:25:25;;;;;;;;;7.00;6.00;;;;;15.76;100.00;101759.56;5032091;28;44771;-90
2022/07/02 01:27:51;;;;;;;;;8.75;6.25;;;;;15.70;100.00;101762.66;5060859;28;44648;-89
2022/07/02 01:30:16;;;;;;;;;4.25;4.25;;;;;15.71;100.00;101774.22;5039088;28;44855;-90
2022/07/02 01:32:45;;;;;;;;;4.75;4.00;;;;;15.67;100.00;101770.94;5048397;28;45018;-91
2022/07/02 01:35:17;;;;;;;;;5.20;4.00;;;;;15.64;100.00;101773.81;5048009;28;44770;-91
2022/07/02 01:37:49;;;;;;;;;3.00;3.00;;;;;15.59;100.00;101773.25;5014187;28;44794;-91
2022/07/02 01:40:19;;;;;;;;;5.50;4.50;;;;;15.54;100.00;101780.78;5013668;28;44910;-90
2022/07/02 01:42:44;;;;;;;;;8.25;6.75;;;;;15.46;100.00;101769.75;5021766;28;45348;-89
2022/07/02 01:45:10;;;;;;;;;6.25;5.50;;;;;15.41;100.00;101773.59;5044412;28;44719;-89
2022/07/02 01:47:36;;;;;;;;;6.25;6.25;;;;;15.39;100.00;101770.19;5026348;28;44791;-88
2022/07/02 01:50:02;;;;;;;;;6.50;4.75;;;;;15.37;100.00;101776.59;5029737;28;44886;-89
2022/07/02 01:52:27;;;;;;;;;8.25;6.50;;;;;15.36;100.00;101772.22;5049834;28;45277;-90
2022/07/02 01:55:22;;;;;;;;;10.50;6.75;;;;;15.32;100.00;101778.75;5049841;28;44829;-91
2022/07/02 01:57:48;;;;;;;;;6.80;6.20;;;;;15.28;100.00;101771.88;5034340;28;44636;-89
2022/07/02 02:00:24;;;;;;;;;8.00;6.25;;;;;15.27;100.00;101773.72;5055319;28;44861;-90
2022/07/02 02:02:50;;;;;;;;;8.00;8.00;;;;;15.24;100.00;101781.97;5049879;28;45282;-89
2022/07/02 02:05:16;;;;;;;;;8.40;6.80;;;;;15.21;100.00;101773.28;5046571;28;44632;-89
2022/07/02 02:07:49;;;;;;;;;7.00;7.00;;;;;15.19;100.00;101772.56;5048011;28;45284;-91
2022/07/02 02:10:25;;;;;;;;;8.50;7.00;;;;;15.10;100.00;101772.22;5040126;28;44890;-91
2022/07/02 02:13:01;;;;;;;;;8.75;7.50;;;;;15.00;100.00;101749.75;5045673;27;45056;-91
2022/07/02 02:15:33;;;;;;;;;6.40;6.40;;;;;15.05;100.00;101769.00;5046883;28;44775;-90
2022/07/02 02:18:02;;;;;;;;;7.20;7.20;;;;;15.05;100.00;101769.00;5034078;28;44642;-91
2022/07/02 02:20:34;;;;;;;;;9.25;7.50;;;;;15.01;100.00;101758.63;5043542;28;44809;-92
2022/07/02 02:23:08;;;;;;;;;7.75;7.25;;;;;15.03;100.00;101762.03;5025510;28;47012;-91
2022/07/02 02:25:34;;;;;;;;;8.00;7.20;;;;;14.98;100.00;101756.16;5034933;28;44677;-92
2022/07/02 02:28:01;;;;;;;;;12.00;6.75;;;;;14.95;100.00;101759.91;5032320;28;44629;-92
2022/07/02 02:30:29;;;;;;;;;8.25;6.50;;;;;14.91;100.00;101758.41;5031265;28;44838;-89
2022/07/02 02:32:59;;;;;;;;;8.00;7.00;;;;;14.88;100.00;101758.59;5051209;28;45094;-91
2022/07/02 02:35:50;;;;;;;;;4.20;2.00;;;;;14.85;100.00;101765.03;5046875;28;44758;-91
2022/07/02 02:38:19;;;;;;;;;6.20;6.20;;;;;14.80;100.00;101759.16;5046701;28;44736;-91
2022/07/02 02:40:50;;;;;;;;;6.25;6.25;;;;;14.78;100.00;101754.84;5043406;28;44962;-91
2022/07/02 02:43:19;;;;;;;;;10.25;8.00;;;;;14.74;100.00;101758.69;5033723;28;45279;-91
2022/07/02 02:45:54;;;;;;;;;10.60;7.60;;;;;14.73;100.00;101757.84;5047831;28;44738;-89
2022/07/02 02:48:22;;;;;;;;;7.25;7.25;;;;;14.68;100.00;101759.13;5050672;27;44767;-91
2022/07/02 02:51:04;;;;;;;;;9.75;8.00;;;;;14.63;100.00;101751.41;5067356;27;44846;-92
2022/07/02 02:53:42;;;;;;;;;10.50;7.75;;;;;14.65;100.00;101760.19;5027105;28;45234;-91
2022/07/02 02:56:15;;;;;;;;;3.60;3.60;;;;;14.63;100.00;101760.28;5058432;28;44710;-91
2022/07/02 02:58:54;;;;;;;;;8.00;7.50;;;;;14.61;100.00;101759.53;5056403;28;44597;-91
2022/07/02 03:01:27;;;;;;;;;7.25;7.25;;;;;14.60;100.00;101759.63;5032912;28;44959;-91
2022/07/02 03:07:19;;;;;;;;;7.40;7.00;;;;;14.51;100.00;101763.78;5044273;28;44656;-91
2022/07/02 03:13:07;;;;;;;;;10.00;7.25;;;;;14.43;100.00;101768.75;5049111;28;44687;-92
2022/07/02 03:15:33;;;;;;;;;7.25;7.25;;;;;14.37;100.00;101763.81;5010028;28;45097;-90
2022/07/02 03:17:58;;;;;;;;;7.75;6.25;;;;;14.35;100.00;101768.41;5043854;28;44767;-89
2022/07/02 03:20:24;;;;;;;;;10.00;7.00;;;;;14.33;100.00;101779.19;5047072;28;44759;-89
2022/07/02 03:22:50;;;;;;;;;7.25;6.75;;;;;14.27;100.00;101773.41;5047873;28;45309;-88
2022/07/02 03:25:15;;;;;;;;;11.00;7.00;;;;;14.27;100.00;101784.09;5045968;28;46794;-89
2022/07/02 03:27:41;;;;;;;;;6.75;5.25;;;;;14.23;100.00;101778.09;5023739;28;44780;-89
2022/07/02 03:30:07;;;;;;;;;6.50;6.50;;;;;14.20;100.00;101783.63;5022741;28;44903;-89
2022/07/02 03:32:36;;;;;;;;;7.75;6.75;;;;;14.18;100.00;101779.34;5047094;28;45236;-88
2022/07/02 03:35:02;;;;;;;;;9.50;7.25;;;;;14.14;100.00;101768.84;5074870;28;46924;-88
2022/07/02 03:37:28;;;;;;;;;6.50;6.50;;;;;14.13;100.00;101772.50;5074182;28;44790;-88
2022/07/02 03:39:55;;;;;;;;;8.75;7.75;;;;;14.09;100.00;101770.97;5056249;28;44790;-88
2022/07/02 03:42:20;;;;;;;;;9.00;7.00;;;;;14.06;100.00;101772.97;5072110;28;44869;-88
2022/07/02 03:44:46;;;;;;;;;10.00;5.75;;;;;14.04;100.00;101780.25;5068915;28;46778;-89
2022/07/02 03:47:15;;;;;;;;;8.25;8.25;;;;;14.02;100.00;101782.16;5081922;27;44732;-91
2022/07/02 03:49:44;;;;;;;;;8.00;7.75;;;;;13.97;100.00;101778.91;5087154;27;44827;-90
2022/07/02 03:52:16;;;;;;;;;7.75;7.50;;;;;13.97;100.00;101781.59;5054831;27;44950;-90
2022/07/02 03:54:47;;;;;;;;;11.25;9.50;;;;;13.96;100.00;101783.41;5087566;27;45159;-92
2022/07/02 03:57:13;;;;;;;;;6.25;6.25;;;;;13.97;100.00;101777.09;5070584;27;44739;-91
2022/07/02 03:59:39;;;;;;;;;6.50;6.50;;;;;13.98;100.00;101783.31;5071032;28;44838;-91
2022/07/02 04:02:04;;;;;;;;;6.75;6.75;;;;;13.96;100.00;101779.88;5058035;28;44809;-89
2022/07/02 04:04:30;;;;;;;;;7.00;7.00;;;;;13.97;100.00;101768.22;5060554;28;45182;-90
2022/07/02 04:06:57;;;;;;;;;4.00;4.00;;;;;14.08;100.00;101773.75;5060225;28;44704;-89
2022/07/02 04:09:22;;;;;;;;;6.40;6.40;;;;;14.20;100.00;101778.28;5059081;28;45438;-89
2022/07/02 04:11:48;;;;;;;;;6.25;6.25;;;;;14.34;100.00;101775.56;5060280;28;44932;-89
2022/07/02 04:14:13;;;;;;;;;7.50;6.50;;;;;14.52;100.00;101776.19;5044598;28;45336;-88
2022/07/02 04:16:39;;;;;;;;;7.50;5.25;;;;;14.70;100.00;101771.44;5061840;28;45484;-89
2022/07/02 04:19:04;;;;;;;;;10.00;7.50;;;;;14.84;100.00;101765.13;5062356;28;44705;-89
2022/07/02 04:21:30;;;;;;;;;6.25;6.25;;;;;15.02;100.00;101774.56;5045414;28;44975;-89
2022/07/02 04:23:55;;;;;;;;;7.00;6.25;;;;;15.24;100.00;101776.63;5045776;28;45719;-89
2022/07/02 04:26:30;;;;;;;;;7.50;7.50;;;;;15.41;100.00;101778.09;5048576;28;44806;-90
2022/07/02 04:29:02;;;;;;;;;6.20;6.20;;;;;15.64;100.00;101779.19;5070043;28;44785;-91
2022/07/02 04:31:32;;;;;;;;;7.00;5.00;;;;;15.86;100.00;101773.16;5052424;28;44941;-91
2022/07/02 04:34:04;;;;;;;;;8.20;5.00;;;;;16.07;100.00;101773.41;5054524;28;45209;-91
2022/07/02 04:36:39;;;;;;;;;6.20;5.40;;;;;16.28;100.00;101777.16;5074471;28;44897;-92
2022/07/02 04:39:12;;;;;;;;;7.20;6.60;;;;;16.47;100.00;101773.94;5073550;28;44825;-92
2022/07/02 04:41:49;;;;;;;;;5.60;5.20;;;;;16.65;100.00;101767.19;5077284;28;44729;-91
2022/07/02 04:44:18;;;;;;;;;6.40;5.20;;;;;16.81;100.00;101771.44;5056087;28;46122;-92
2022/07/02 04:46:47;;;;;;;;;5.80;4.60;;;;;17.01;100.00;101767.19;5072781;28;44623;-92
2022/07/02 04:49:13;;;;;;;;;8.40;7.20;;;;;17.15;100.00;101767.84;5053876;28;45337;-89
2022/07/02 04:51:38;;;;;;;;;8.50;5.00;;;;;17.35;100.00;101768.09;5048407;28;44733;-89
2022/07/02 04:54:04;;;;;;;;;7.00;7.00;;;;;17.48;100.00;101761.63;5065269;28;45220;-89
2022/07/02 04:56:29;;;;;;;;;5.50;5.50;;;;;17.64;100.00;101761.25;5072098;28;44860;-90
2022/07/02 04:58:55;;;;;;;;;4.00;4.00;;;;;17.82;100.00;101760.78;5071956;28;44780;-89
2022/07/02 05:01:25;;;;;;;;;6.80;6.20;;;;;17.97;100.00;101767.59;5075851;28;44843;-89
2022/07/02 05:03:52;;;;;;;;;5.80;5.80;;;;;18.15;100.00;101768.78;5066322;28;45283;-90
2022/07/02 05:06:19;;;;;;;;;10.20;5.80;;;;;18.29;100.00;101761.41;5061494;28;44841;-89
2022/07/02 05:08:45;;;;;;;;;6.80;6.00;;;;;18.43;100.00;101766.50;5060288;28;45191;-89
2022/07/02 05:11:10;;;;;;;;;9.00;7.75;;;;;18.55;100.00;101765.44;5046860;28;44966;-90
2022/07/02 05:13:36;;;;;;;;;7.25;7.25;;;;;18.70;100.00;101757.94;5060893;28;45543;-89
2022/07/02 05:16:01;;;;;;;;;6.00;6.00;;;;;18.85;100.00;101753.09;5044545;28;44773;-90
2022/07/02 05:18:27;;;;;;;;;6.50;6.50;;;;;18.98;100.00;101754.59;5042673;28;44822;-90
2022/07/02 05:20:52;;;;;;;;;6.75;6.50;;;;;19.03;100.00;101756.03;5059499;28;44998;-90
2022/07/02 05:23:28;;;;;;;;;7.50;7.50;;;;;19.13;100.00;101755.13;5060090;28;45121;-91
2022/07/02 05:25:54;;;;;;;;;9.00;6.80;;;;;19.32;100.00;101753.50;5060898;28;45174;-89
2022/07/02 05:28:19;;;;;;;;;7.50;5.50;;;;;19.54;100.00;101766.81;5043394;28;44786;-90
2022/07/02 05:30:46;;;;;;;;;7.20;7.20;;;;;19.64;100.00;101761.50;5061165;28;44853;-90
2022/07/02 05:33:11;;;;;;;;;9.00;7.75;;;;;19.75;100.00;101762.22;5060028;28;45182;-90
2022/07/02 05:36:02;;;;;;;;;6.75;6.75;;;;;19.89;100.00;101758.28;5072830;28;44615;-93
2022/07/02 05:38:36;;;;;;;;;7.80;7.80;;;;;20.07;100.00;101763.88;5074408;28;44781;-93
2022/07/02 05:41:29;;;;;;;;;5.80;5.40;;;;;20.17;100.00;101763.88;5072609;28;44836;-92
2022/07/02 05:43:55;;;;;;;;;5.80;5.60;;;;;20.35;100.00;101764.88;5060363;28;45164;-90
2022/07/02 05:46:22;;;;;;;;;9.25;7.50;;;;;20.45;100.00;101759.47;5066280;28;44722;-90
2022/07/02 05:48:47;;;;;;;;;7.40;4.60;;;;;20.52;100.00;101760.66;5070276;28;44653;-90
2022/07/02 05:51:12;;;;;;;;;5.25;5.25;;;;;20.58;100.00;101762.78;5070494;28;44801;-90
2022/07/02 05:53:39;;;;;;;;;6.00;6.00;;;;;20.69;100.00;101759.09;5069948;28;45182;-89
2022/07/02 05:56:05;;;;;;;;;6.40;6.40;;;;;20.79;100.00;101758.09;5052598;28;44770;-89
2022/07/02 05:58:31;;;;;;;;;6.80;6.80;;;;;20.98;100.00;101761.75;5069428;28;44645;-90
2022/07/02 06:00:58;;;;;;;;;6.80;5.00;;;;;21.05;100.00;101760.19;5069757;28;44799;-90
2022/07/02 06:03:24;;;;;;;;;6.60;6.60;;;;;21.19;100.00;101759.72;5065704;28;45296;-90
2022/07/02 06:08:33;;;;;;;;;5.00;4.80;;;;;21.47;100.00;101763.34;5059061;28;44726;-89
2022/07/02 06:11:00;;;;;;;;;4.25;4.25;;;;;21.61;100.00;101758.44;5057689;28;45031;-90
2022/07/02 06:13:26;;;;;;;;;5.40;5.40;;;;;21.81;100.00;101763.59;5058642;28;45002;-91
2022/07/02 06:15:52;;;;;;;;;6.25;6.25;;;;;21.96;100.00;101761.25;5059104;28;44788;-91
2022/07/02 06:18:17;;;;;;;;;6.00;6.00;;;;;22.13;100.00;101772.28;5056906;28;44866;-90
2022/07/02 06:20:43;;;;;;;;;6.50;6.50;;;;;22.19;100.00;101760.81;5058141;28;44823;-90
2022/07/02 06:23:08;;;;;;;;;4.25;4.25;;;;;22.25;100.00;101762.94;5040326;28;46607;-90
2022/07/02 06:25:34;;;;;;;;;7.00;5.00;;;;;22.38;100.00;101757.97;5067906;28;44645;-89
2022/07/02 06:28:00;;;;;;;;;5.50;4.00;;;;;22.61;100.00;101762.91;5079069;27;44755;-91
2022/07/02 06:30:25;;;;;;;;;5.40;5.40;;;;;22.71;100.00;101764.53;5076521;27;44905;-90
2022/07/02 06:32:55;;;;;;;;;5.00;5.00;;;;;22.78;100.00;101765.63;5063138;28;45298;-90
2022/07/02 06:35:21;;;;;;;;;2.80;2.80;;;;;22.87;100.00;101760.22;5059485;28;45312;-91
2022/07/02 06:37:46;;;;;;;;;3.25;3.25;;;;;22.88;100.00;101751.13;5059060;28;44742;-90
2022/07/02 06:40:12;;;;;;;;;3.75;3.75;;;;;23.03;100.00;101757.69;5065725;28;45372;-91
2022/07/02 06:42:38;;;;;;;;;5.00;3.25;;;;;23.09;100.00;101762.47;5049367;28;45991;-90
2022/07/02 06:45:04;;;;;;;;;3.50;3.50;;;;;23.14;100.00;101764.69;5066055;28;44738;-91
2022/07/02 06:47:31;;;;;;;;;4.00;3.60;;;;;23.17;100.00;101762.53;5068787;28;44779;-91
2022/07/02 06:49:58;;;;;;;;;3.00;3.00;;;;;23.30;100.00;101754.78;5052818;28;44922;-89
2022/07/02 06:52:25;;;;;;;;;5.60;4.00;;;;;23.40;100.00;101754.66;5066833;28;45453;-90
2022/07/02 06:54:51;;;;;;;;;4.20;3.60;;;;;23.45;100.00;101759.63;5066051;28;44750;-90
2022/07/02 06:57:18;;;;;;;;;3.75;3.75;;;;;23.48;100.00;101745.75;5071312;28;44664;-90
2022/07/02 06:59:44;;;;;;;;;3.20;3.20;;;;;23.64;99.17;101764.81;5074002;28;45192;-90
2022/07/02 07:11:36;;;;;;;;;3.60;2.00;;;;;23.75;91.54;101758.28;5276822;22;45880;-94
2022/07/02 07:18:06;;;;;;;;;;;;;;;;;;;;;
2022/07/02 07:24:48;;;;;;;;;1.60;1.00;;;;;24.08;91.73;101756.50;5060374;28;44718;-95
2022/07/02 07:48:36;;;;;;;;;1.60;1.00;;;;;24.41;83.12;101741.13;5044850;28;46569;-91
2022/07/02 07:51:02;;;;;;;;;1.00;1.00;;;;;24.32;84.37;101742.09;5032849;28;45056;-91
2022/07/02 07:54:07;;;;;;;;;1.00;1.00;;;;;24.39;86.16;101736.91;5042887;27;44916;-94
2022/07/02 08:02:37;;;;;;;;;2.60;1.60;;;;;24.43;81.52;101740.97;4287044;22;46485;-90
2022/07/02 08:05:02;;;;;;;;;1.00;1.00;;;;;24.39;83.71;101747.75;5031897;28;44622;-91
2022/07/02 08:07:28;;;;;;;;;1.00;1.00;;;;;24.33;83.05;101738.38;5046840;28;44806;-91
2022/07/02 08:09:55;;;;;;;;;1.00;1.00;;;;;24.29;81.25;101726.16;5024750;28;44878;-92
2022/07/02 08:12:22;;;;;;;;;2.20;0.80;;;;;24.32;82.23;101731.22;5046693;28;45128;-91
2022/07/02 08:16:00;;;;;;;;;1.80;1.20;;;;;24.27;80.28;101730.88;5056117;27;44780;-93
2022/07/02 08:18:59;;;;;;;;;1.00;1.00;;;;;24.22;81.55;101720.53;5026769;28;44764;-94
2022/07/02 08:22:12;;;;;;;;;4.00;1.00;;;;;24.34;81.68;101726.50;5060293;28;44822;-94
2022/07/02 08:24:47;;;;;;;;;1.00;1.00;;;;;24.18;76.59;101716.47;5040365;28;45297;-92
2022/07/02 08:27:12;;;;;;;;;0.25;0.25;;;;;24.13;80.05;101728.84;5044631;28;44576;-92
2022/07/02 08:29:38;;;;;;;;;1.50;1.50;;;;;24.14;80.25;101730.56;5047469;28;44742;-91
2022/07/02 08:32:05;;;;;;;;;1.00;1.00;;;;;24.04;76.85;101733.41;5029861;28;44938;-91
2022/07/02 08:34:32;;;;;;;;;1.00;1.00;;;;;23.99;77.91;101727.66;5047251;28;45166;-91
2022/07/02 08:36:59;;;;;;;;;0.60;0.60;;;;;24.10;76.99;101724.59;5027468;28;44806;-91
2022/07/02 08:39:25;;;;;;;;;0.00;0.00;;;;;24.13;76.97;101718.84;5044078;28;44704;-91
2022/07/02 08:41:53;;;;;;;;;0.25;0.25;;;;;24.12;76.10;101722.56;5049378;28;45014;-91
2022/07/02 08:44:24;;;;;;;;;3.00;1.20;;;;;24.08;74.51;101722.06;5053803;28;44990;-91
2022/07/02 08:46:50;;;;;;;;;1.60;1.00;;;;;24.19;76.01;101723.59;5044296;27;44702;-90
2022/07/02 08:49:19;;;;;;;;;0.00;0.00;;;;;24.23;75.67;101716.81;5066167;27;44652;-90
2022/07/02 08:52:02;;;;;;;;;0.00;0.00;;;;;24.33;75.15;101722.94;5045374;28;44867;-90
2022/07/02 08:54:28;;;;;;;;;0.40;0.40;;;;;24.35;72.75;101718.16;5063375;28;45252;-91
2022/07/02 08:56:54;;;;;;;;;0.00;0.00;;;;;24.32;68.95;101713.09;5056413;28;44814;-90
2022/07/02 08:59:20;;;;;;;;;2.00;0.00;;;;;24.28;71.50;101711.72;5035464;28;44750;-91
2022/07/02 09:01:52;;;;;;;;;0.75;0.75;;;;;24.34;73.83;101719.19;5053297;28;44786;-92
2022/07/02 09:04:31;;;;;;;;;0.60;0.40;;;;;24.41;70.53;101711.25;5054250;28;45259;-91
2022/07/02 09:06:59;;;;;;;;;0.00;0.00;;;;;24.42;67.82;101712.09;5027775;28;44769;-91
2022/07/02 09:09:28;;;;;;;;;0.20;0.20;;;;;24.46;71.10;101713.44;5044175;28;44649;-90
2022/07/02 09:11:56;;;;;;;;;1.00;1.00;;;;;24.51;73.88;101708.34;5044437;28;45426;-91
2022/07/02 09:14:23;;;;;;;;;1.00;1.00;;;;;24.57;73.27;101705.81;5046279;28;45484;-92
2022/07/02 09:16:49;;;;;;;;;0.80;0.80;;;;;24.61;71.21;101707.19;5029469;28;44662;-91
2022/07/02 09:19:17;;;;;;;;;1.00;1.00;;;;;24.59;67.23;101697.50;5026086;28;44605;-91
2022/07/02 09:21:48;;;;;;;;;0.40;0.40;;;;;24.63;68.61;101695.28;5030312;28;45004;-91
2022/07/02 09:24:13;;;;;;;;;0.00;0.00;;;;;24.68;70.80;101699.19;5048320;28;44995;-90
2022/07/02 09:26:39;;;;;;;;;0.50;0.50;;;;;24.72;69.03;101702.41;5046686;28;44672;-92
2022/07/02 09:29:06;;;;;;;;;0.00;0.00;;;;;24.66;65.73;101697.66;5044294;28;45282;-91
2022/07/02 09:31:32;;;;;;;;;0.80;0.00;;;;;24.76;66.14;101703.78;5043600;28;44921;-90
2022/07/02 09:33:59;;;;;;;;;0.00;0.00;;;;;24.77;64.04;101694.59;5024547;28;45535;-91
2022/07/02 09:36:25;;;;;;;;;0.00;0.00;;;;;24.79;62.92;101695.25;5025390;28;44932;-91
2022/07/02 09:38:53;;;;;;;;;2.00;0.00;;;;;24.70;56.73;101691.69;5006546;28;44763;-91
2022/07/02 09:41:21;;;;;;;;;0.00;0.00;;;;;24.65;57.77;101690.53;5022463;28;44820;-91
2022/07/02 09:43:59;;;;;;;;;0.00;0.00;;;;;24.66;57.80;101698.53;5026634;28;47077;-91
2022/07/02 09:46:26;;;;;;;;;1.20;0.00;;;;;24.68;58.09;101687.47;5030783;28;44859;-90
2022/07/02 09:48:51;;;;;;;;;0.20;0.20;;;;;24.73;61.56;101682.38;5049523;28;44730;-90
2022/07/02 09:51:18;;;;;;;;;0.00;0.00;;;;;24.85;62.03;101694.56;5029551;28;44797;-90
2022/07/02 09:53:55;;;;;;;;;0.00;0.00;;;;;24.93;62.91;101682.84;5051106;28;45094;-91
2022/07/02 09:56:22;;;;;;;;;0.00;0.00;;;;;24.98;62.87;101688.59;5049938;28;44553;-91
2022/07/02 09:58:49;;;;;;;;;1.00;1.00;;;;;24.98;59.72;101691.31;5032215;28;44711;-91
2022/07/02 10:01:19;;;;;;;;;0.00;0.00;;;;;24.88;58.45;101689.63;5047652;28;44927;-91
2022/07/02 10:03:54;;;;;;;;;0.00;0.00;;;;;24.94;61.53;101681.81;5046175;28;45181;-92
2022/07/02 10:06:20;;;;;;;;;0.20;0.20;;;;;25.01;55.57;101689.09;5045829;28;44617;-91
2022/07/02 10:08:47;;;;;;;;;0.00;0.00;;;;;24.92;55.56;101681.13;5046598;28;44705;-92
2022/07/02 10:11:15;;;;;;;;;0.00;0.00;;;;;24.88;52.92;101672.47;5029663;28;44973;-91
2022/07/02 10:13:41;;;;;;;;;1.00;1.00;;;;;24.89;54.07;101674.16;5035266;28;46132;-91
2022/07/02 10:16:17;;;;;;;;;1.00;0.00;;;;;24.79;49.48;101682.50;5034296;28;44786;-91
2022/07/02 10:18:43;;;;;;;;;0.00;0.00;;;;;24.48;50.09;101670.69;5029240;28;44804;-91
2022/07/02 10:21:14;;;;;;;;;0.20;0.20;;;;;24.22;50.79;101671.66;5031147;28;44938;-92
2022/07/02 10:23:42;;;;;;;;;0.00;0.00;;;;;24.16;52.55;101672.34;5047029;28;45125;-91
2022/07/02 10:26:11;;;;;;;;;0.00;0.00;;;;;24.40;56.23;101651.66;5055610;28;44791;-92
2022/07/02 10:28:36;;;;;;;;;1.00;1.00;;;;;24.59;55.87;101646.72;5046031;27;44626;-91
2022/07/02 10:31:02;;;;;;;;;0.25;0.25;;;;;24.76;55.30;101647.53;5050342;27;44707;-91
2022/07/02 10:33:41;;;;;;;;;0.40;0.40;;;;;24.85;56.06;101649.22;5047937;28;45238;-91
2022/07/02 10:36:11;;;;;;;;;1.00;1.00;;;;;24.94;54.05;101644.59;5048929;28;44746;-91
2022/07/02 10:38:38;;;;;;;;;1.00;1.00;;;;;24.98;53.10;101650.53;5049071;28;44616;-90
2022/07/02 10:41:07;;;;;;;;;0.00;0.00;;;;;25.08;54.32;101646.59;5064710;28;44785;-90
2022/07/02 10:43:37;;;;;;;;;1.20;1.20;;;;;25.17;52.53;101644.72;5065916;27;45240;-91
2022/07/02 10:46:08;;;;;;;;;1.00;1.00;;;;;25.13;52.28;101644.22;5047653;28;44599;-91
2022/07/02 10:48:57;;;;;;;;;0.20;0.20;;;;;25.18;53.39;101645.56;5054019;28;44628;-91
2022/07/02 10:51:25;;;;;;;;;2.60;1.00;;;;;25.29;54.73;101640.59;5048548;28;44746;-92
2022/07/02 10:54:06;;;;;;;;;0.00;0.00;;;;;25.32;51.54;101640.22;5036275;28;45341;-91
2022/07/02 10:56:49;;;;;;;;;0.00;0.00;;;;;25.35;51.43;101639.88;5053549;28;44637;-94
2022/07/02 10:59:37;;;;;;;;;0.40;0.40;;;;;25.38;50.40;101636.81;5007616;28;44629;-94
2022/07/02 11:02:18;;;;;;;;;1.00;1.00;;;;;25.37;53.02;101645.13;5055409;28;44858;-93
2022/07/02 11:04:44;;;;;;;;;1.00;1.00;;;;;25.48;52.55;101633.88;5025545;28;45825;-93
2022/07/02 11:07:14;;;;;;;;;0.00;0.00;;;;;25.36;49.64;101640.72;5042408;28;44618;-94
2022/07/02 11:10:07;;;;;;;;;1.00;1.00;;;;;25.37;52.44;101629.66;5044557;28;44727;-94
2022/07/02 11:13:01;;;;;;;;;0.40;0.40;;;;;25.61;52.25;101627.81;5047356;28;44851;-94
2022/07/02 11:15:47;;;;;;;;;1.00;1.00;;;;;25.79;51.87;101633.03;5062543;28;45323;-93
2022/07/02 11:18:16;;;;;;;;;0.00;0.00;;;;;25.75;47.96;101628.94;5045940;28;44589;-92
2022/07/02 11:20:47;;;;;;;;;2.00;0.80;;;;;25.82;51.45;101628.06;5045812;28;44859;-93
2022/07/02 11:24:15;;;;;;;;;0.20;0.20;;;;;25.99;50.28;101625.22;5066912;27;44721;-93
2022/07/02 11:26:48;;;;;;;;;1.40;0.80;;;;;25.94;50.88;101616.75;5049633;28;45424;-94
2022/07/02 11:29:14;;;;;;;;;0.00;0.00;;;;;26.11;50.63;101621.88;5064906;27;44824;-93
2022/07/02 11:31:47;;;;;;;;;1.00;1.00;;;;;26.18;51.34;101624.72;5060858;28;44738;-94
2022/07/02 11:34:22;;;;;;;;;1.60;1.00;;;;;26.35;52.45;101618.09;5040450;28;44857;-94
2022/07/02 11:36:54;;;;;;;;;1.00;1.00;;;;;26.44;49.25;101618.88;5040858;28;45234;-94
2022/07/02 11:39:23;;;;;;;;;1.00;1.00;;;;;26.39;49.88;101619.38;5043139;28;44597;-93
2022/07/02 11:41:50;;;;;;;;;2.00;1.00;;;;;26.55;49.77;101615.72;5015427;27;44735;-93
2022/07/02 11:44:33;;;;;;;;;1.00;1.00;;;;;26.62;48.77;101618.53;5048387;28;44807;-93
2022/07/02 11:47:04;;;;;;;;;1.20;1.20;;;;;26.80;48.38;101620.91;5107551;22;45370;-93
2022/07/02 11:49:41;;;;;;;;;0.00;0.00;;;;;26.91;47.10;101620.41;5064807;27;44672;-92
2022/07/02 11:52:13;;;;;;;;;1.00;1.00;;;;;26.76;45.45;101606.78;5048424;27;44799;-93
2022/07/02 11:54:43;;;;;;;;;2.80;1.00;;;;;26.89;46.03;101617.88;5043232;28;44938;-93
2022/07/02 11:57:12;;;;;;;;;2.00;1.00;;;;;27.00;47.96;101615.72;5042729;28;45342;-92
2022/07/02 11:59:38;;;;;;;;;1.00;1.00;;;;;27.02;44.19;101609.03;5044833;28;44619;-93
2022/07/02 12:02:09;;;;;;;;;1.25;1.25;;;;;27.14;46.78;101610.28;5061900;28;44774;-94
2022/07/02 12:04:56;;;;;;;;;1.40;1.40;;;;;27.26;46.96;101599.69;5046028;28;44888;-93
2022/07/02 12:07:27;;;;;;;;;2.00;2.00;;;;;27.18;43.99;101599.84;5042556;28;45116;-93
2022/07/02 12:09:54;;;;;;;;;2.00;2.00;;;;;27.23;44.93;101596.53;5036283;28;44768;-91
2022/07/02 12:12:19;;;;;;;;;2.00;2.00;;;;;27.40;46.64;101582.44;5049432;28;44691;-91
2022/07/02 12:14:50;;;;;;;;;2.00;1.40;;;;;27.57;46.15;101582.22;5035109;28;44897;-91
2022/07/02 12:17:15;;;;;;;;;2.40;2.40;;;;;27.63;45.97;101581.44;5051429;28;45322;-91
2022/07/02 12:19:41;;;;;;;;;2.25;1.25;;;;;27.66;44.60;101568.25;5048509;28;44622;-91
2022/07/02 12:22:07;;;;;;;;;2.00;2.00;;;;;27.65;45.94;101569.28;5046353;28;45167;-91
2022/07/02 12:24:39;;;;;;;;;2.00;2.00;;;;;27.76;46.49;101559.75;5044110;28;44825;-91
2022/07/02 12:27:07;;;;;;;;;1.75;1.75;;;;;27.95;45.88;101577.38;5010982;28;45073;-91
2022/07/02 12:29:53;;;;;;;;;1.40;0.80;;;;;28.04;43.26;101567.97;5034860;28;44714;-92
2022/07/02 12:32:38;;;;;;;;;2.00;2.00;;;;;28.10;42.38;101561.75;5045553;28;44727;-92
2022/07/02 12:35:10;;;;;;;;;1.00;1.00;;;;;28.13;42.96;101564.06;5040965;28;44665;-92